createdAt,value
2019-03-27T00:00:47.969Z,4.50
2019-03-27T00:04:52.946Z,4.50
2019-03-27T00:08:57.985Z,4.50
2019-03-27T00:13:02.977Z,4.60
2019-03-27T00:17:07.989Z,4.60
2019-03-27T00:21:13.010Z,4.60
2019-03-27T00:25:17.987Z,4.60
2019-03-27T00:29:22.985Z,4.60
2019-03-27T00:33:27.982Z,4.50
2019-03-27T00:37:34.081Z,4.50
2019-03-27T00:41:39.085Z,4.50
2019-03-27T00:45:44.085Z,4.50
2019-03-27T00:49:49.070Z,4.50
2019-03-27T00:53:54.068Z,4.50
2019-03-27T00:57:59.086Z,4.50
2019-03-27T01:02:04.146Z,4.40
2019-03-27T01:06:09.382Z,4.50
2019-03-27T01:10:14.702Z,4.50
2019-03-27T01:14:19.702Z,4.40
2019-03-27T01:18:24.780Z,4.40
2019-03-27T01:22:29.773Z,4.40
2019-03-27T01:26:34.816Z,4.30
2019-03-27T01:30:39.782Z,4.40
2019-03-27T01:34:44.846Z,4.30
2019-03-27T01:38:49.842Z,4.40
2019-03-27T01:42:54.829Z,4.40
2019-03-27T01:46:59.827Z,4.50
2019-03-27T01:51:04.905Z,4.50
2019-03-27T01:55:10.042Z,4.50
2019-03-27T01:59:15.042Z,4.50
2019-03-27T02:03:20.040Z,4.60
2019-03-27T02:07:25.044Z,4.60
2019-03-27T02:11:30.033Z,4.60
2019-03-27T02:15:35.010Z,4.70
2019-03-27T02:19:40.030Z,4.60
2019-03-27T02:23:45.037Z,4.60
2019-03-27T02:27:50.038Z,4.60
2019-03-27T02:31:55.052Z,4.60
2019-03-27T02:36:00.017Z,4.50
2019-03-27T02:40:07.270Z,4.40
2019-03-27T02:44:12.266Z,4.40
2019-03-27T02:48:17.275Z,4.30
2019-03-27T02:52:22.391Z,4.30
2019-03-27T02:56:27.450Z,4.30
2019-03-27T03:00:33.243Z,4.30
2019-03-27T03:04:38.240Z,4.30
2019-03-27T03:08:43.239Z,4.30
2019-03-27T03:12:48.305Z,4.40
2019-03-27T03:16:53.298Z,4.30
2019-03-27T03:20:58.278Z,4.40
2019-03-27T03:25:05.480Z,4.30
2019-03-27T03:29:10.478Z,4.40
2019-03-27T03:33:15.476Z,4.40
2019-03-27T03:37:20.471Z,4.30
2019-03-27T03:41:25.451Z,4.40
2019-03-27T03:45:30.451Z,4.40
2019-03-27T03:49:35.462Z,4.40
2019-03-27T03:53:40.537Z,4.40
2019-03-27T03:57:47.073Z,4.40
2019-03-27T04:01:54.152Z,4.50
2019-03-27T04:05:59.134Z,4.40
2019-03-27T04:10:05.369Z,4.50
2019-03-27T04:14:10.372Z,4.40
2019-03-27T04:18:15.383Z,4.40
2019-03-27T04:22:20.365Z,4.40
2019-03-27T04:26:25.342Z,4.40
2019-03-27T04:30:30.341Z,4.30
2019-03-27T04:34:35.342Z,4.30
2019-03-27T04:38:40.345Z,4.30
2019-03-27T04:42:45.345Z,4.30
2019-03-27T04:46:50.321Z,4.30
2019-03-27T04:50:55.322Z,4.20
2019-03-27T04:55:00.428Z,4.20
2019-03-27T04:59:05.386Z,4.30
2019-03-27T05:03:10.382Z,4.30
2019-03-27T05:07:15.353Z,4.20
2019-03-27T05:11:20.349Z,4.30
2019-03-27T05:15:25.464Z,4.30
2019-03-27T05:19:30.449Z,4.30
2019-03-27T05:23:35.447Z,4.30
2019-03-27T05:27:40.443Z,4.40
2019-03-27T05:31:45.451Z,4.30
2019-03-27T05:35:50.553Z,4.30
2019-03-27T05:39:55.554Z,4.30
2019-03-27T05:44:00.548Z,4.40
2019-03-27T05:48:05.593Z,4.40
2019-03-27T05:52:10.538Z,4.40
2019-03-27T05:56:15.537Z,4.40
2019-03-27T06:00:20.536Z,4.50
2019-03-27T06:04:25.563Z,4.50
2019-03-27T06:08:30.633Z,4.50
2019-03-27T06:12:35.774Z,4.50
2019-03-27T06:16:40.782Z,4.50
2019-03-27T06:20:45.797Z,4.50
2019-03-27T06:24:52.557Z,4.50
2019-03-27T06:28:57.554Z,4.60
2019-03-27T06:33:02.536Z,4.60
2019-03-27T06:37:07.544Z,4.60
2019-03-27T06:41:12.537Z,4.60
2019-03-27T06:45:17.910Z,4.60
2019-03-27T06:49:22.929Z,4.60
2019-03-27T06:53:27.944Z,4.50
2019-03-27T06:57:32.988Z,4.50
2019-03-27T07:01:37.978Z,4.50
2019-03-27T07:05:43.108Z,4.70
2019-03-27T07:09:48.118Z,4.80
2019-03-27T07:13:53.122Z,4.70
2019-03-27T07:17:58.101Z,4.70
2019-03-27T07:22:03.114Z,4.70
2019-03-27T07:26:08.133Z,4.70
2019-03-27T07:30:13.566Z,4.80
2019-03-27T07:34:18.563Z,4.90
2019-03-27T07:38:23.859Z,4.90
2019-03-27T07:42:29.128Z,4.90
2019-03-27T07:46:34.100Z,4.90
2019-03-27T07:50:39.101Z,5.00
2019-03-27T07:54:44.110Z,5.00
2019-03-27T07:58:49.174Z,5.00
2019-03-27T08:02:54.177Z,5.00
2019-03-27T08:06:59.172Z,5.10
2019-03-27T08:11:04.238Z,5.10
2019-03-27T08:15:09.673Z,5.30
2019-03-27T08:19:15.783Z,5.40
2019-03-27T08:23:20.789Z,5.60
2019-03-27T08:27:25.781Z,5.80
2019-03-27T08:31:30.773Z,5.90
2019-03-27T08:35:35.839Z,5.90
2019-03-27T08:39:40.838Z,6.10
2019-03-27T08:43:45.966Z,6.30
2019-03-27T08:47:50.966Z,6.60
2019-03-27T08:51:56.244Z,7.00
2019-03-27T08:56:01.302Z,7.30
2019-03-27T09:00:08.995Z,7.90
2019-03-27T09:04:14.246Z,8.90
2019-03-27T09:08:19.694Z,9.90
2019-03-27T09:12:24.981Z,10.10
2019-03-27T09:16:30.294Z,10.00
2019-03-27T09:20:35.709Z,9.90
2019-03-27T09:24:40.957Z,9.90
2019-03-27T09:28:46.225Z,10.10
2019-03-27T09:32:51.522Z,10.00
2019-03-27T09:36:57.184Z,10.20
2019-03-27T09:41:02.757Z,10.50
2019-03-27T09:45:11.754Z,10.40
2019-03-27T09:49:17.031Z,10.20
2019-03-27T09:53:22.349Z,10.90
2019-03-27T09:57:27.644Z,11.90
2019-03-27T10:01:32.941Z,12.20
2019-03-27T10:05:38.258Z,12.20
2019-03-27T10:09:43.521Z,12.50
2019-03-27T10:13:48.861Z,12.40
2019-03-27T10:17:54.328Z,12.30
2019-03-27T10:21:59.590Z,12.00
2019-03-27T10:26:05.057Z,11.30
2019-03-27T10:30:10.577Z,11.10
2019-03-27T10:34:15.842Z,10.90
2019-03-27T10:38:21.125Z,10.40
2019-03-27T10:42:26.412Z,10.30
2019-03-27T10:46:31.695Z,10.00
2019-03-27T10:50:37.050Z,9.50
2019-03-27T10:54:42.425Z,9.00
2019-03-27T10:58:47.682Z,9.10
2019-03-27T11:02:52.954Z,9.80
2019-03-27T11:06:58.314Z,10.20
2019-03-27T11:11:03.596Z,10.30
2019-03-27T11:15:10.984Z,10.10
2019-03-27T11:19:16.304Z,9.80
2019-03-27T11:23:21.588Z,9.40
2019-03-27T11:27:26.874Z,9.10
2019-03-27T11:31:32.167Z,9.00
2019-03-27T11:35:37.598Z,8.90
2019-03-27T11:39:43.231Z,8.70
2019-03-27T11:43:54.981Z,8.90
2019-03-27T11:47:59.891Z,9.40
2019-03-27T11:52:05.344Z,10.10
2019-03-27T11:56:11.108Z,10.30
2019-03-27T12:00:19.646Z,10.30
2019-03-27T12:04:34.620Z,10.50
2019-03-27T12:08:46.103Z,11.00
2019-03-27T12:12:54.284Z,11.10
2019-03-27T12:17:02.889Z,11.50
2019-03-27T12:21:12.130Z,11.50
2019-03-27T12:25:27.310Z,11.10
2019-03-27T12:29:32.806Z,10.90
2019-03-27T12:33:41.458Z,10.70
2019-03-27T12:37:53.976Z,10.60
2019-03-27T12:42:02.101Z,10.50
2019-03-27T12:46:11.815Z,10.20
2019-03-27T12:50:20.034Z,10.00
2019-03-27T12:54:27.288Z,9.90
2019-03-27T12:58:32.676Z,9.70
2019-03-27T13:02:39.601Z,9.60
2019-03-27T13:06:55.580Z,9.80
2019-03-27T13:10:59.414Z,10.20
2019-03-27T13:15:09.478Z,10.70
2019-03-27T13:19:20.926Z,11.30
2019-03-27T13:23:32.682Z,11.80
2019-03-27T13:27:41.465Z,11.80
2019-03-27T13:31:51.230Z,11.50
2019-03-27T13:35:59.458Z,11.40
2019-03-27T13:40:09.766Z,11.40
2019-03-27T13:44:36.849Z,11.30
2019-03-27T13:48:40.910Z,11.20
2019-03-27T13:52:47.494Z,11.10
2019-03-27T13:56:54.552Z,10.90
2019-03-27T14:01:08.737Z,10.80
2019-03-27T14:05:10.286Z,10.90
2019-03-27T14:09:20.163Z,10.90
2019-03-27T14:13:27.285Z,11.00
2019-03-27T14:17:37.141Z,11.10
2019-03-27T14:21:54.447Z,11.30
2019-03-27T14:26:02.887Z,11.50
2019-03-27T14:30:12.635Z,11.60
2019-03-27T14:34:24.419Z,11.50
2019-03-27T14:38:32.956Z,11.40
2019-03-27T14:42:45.476Z,11.20
2019-03-27T14:46:54.389Z,11.00
2019-03-27T14:51:06.012Z,10.80
2019-03-27T14:55:18.635Z,10.60
2019-03-27T14:59:28.802Z,10.60
2019-03-27T15:03:38.020Z,10.80
2019-03-27T15:07:55.232Z,10.90
2019-03-27T15:12:12.077Z,11.00
2019-03-27T15:16:22.880Z,11.10
2019-03-27T15:20:34.772Z,11.10
2019-03-27T15:24:41.436Z,10.80
2019-03-27T15:28:51.123Z,10.50
2019-03-27T15:33:01.353Z,10.50
2019-03-27T15:37:12.661Z,10.40
2019-03-27T15:41:23.320Z,10.30
2019-03-27T15:45:34.123Z,10.20
2019-03-27T15:49:41.614Z,10.10
2019-03-27T15:53:51.353Z,9.90
2019-03-27T15:57:57.857Z,9.70
2019-03-27T16:02:09.939Z,9.50
2019-03-27T16:06:21.931Z,9.50
2019-03-27T16:10:34.470Z,9.30
2019-03-27T16:14:46.192Z,9.10
2019-03-27T16:19:04.954Z,9.10
2019-03-27T16:23:11.555Z,9.10
2019-03-27T16:27:24.287Z,9.10
2019-03-27T16:31:33.993Z,9.20
2019-03-27T16:35:41.185Z,9.30
2019-03-27T16:39:52.467Z,9.30
2019-03-27T16:44:00.699Z,9.30
2019-03-27T16:48:08.691Z,9.10
2019-03-27T16:52:18.818Z,9.00
2019-03-27T16:56:30.179Z,8.90
2019-03-27T17:00:43.909Z,8.80
2019-03-27T17:04:49.470Z,8.70
2019-03-27T17:08:58.828Z,8.60
2019-03-27T17:13:06.327Z,8.50
2019-03-27T17:17:14.865Z,8.50
2019-03-27T17:21:23.483Z,8.40
2019-03-27T17:25:31.247Z,8.30
2019-03-27T17:29:43.841Z,8.20
2019-03-27T17:33:52.787Z,8.20
2019-03-27T17:42:35.108Z,8.20
2019-03-27T17:46:50.161Z,8.10
2019-03-27T17:50:56.897Z,8.10
2019-03-27T17:55:07.314Z,8.10
2019-03-27T17:59:14.706Z,8.00
2019-03-27T18:03:22.559Z,8.00
2019-03-27T18:07:30.328Z,8.00
2019-03-27T18:11:39.263Z,8.00
2019-03-27T18:15:46.276Z,8.00
2019-03-27T18:19:53.727Z,8.00
2019-03-27T18:24:00.869Z,8.00
2019-03-27T18:28:09.473Z,8.00
2019-03-27T18:32:23.962Z,8.00
2019-03-27T18:36:32.001Z,8.00
2019-03-27T18:40:44.369Z,7.90
2019-03-27T18:44:53.479Z,7.90
2019-03-27T18:49:04.624Z,7.90
2019-03-27T18:53:10.018Z,7.90
2019-03-27T18:57:25.294Z,7.80
2019-03-27T19:01:37.572Z,7.80
2019-03-27T19:05:47.372Z,7.80
2019-03-27T19:09:56.666Z,7.80
2019-03-27T19:14:05.423Z,7.80
2019-03-27T19:18:14.462Z,7.70
2019-03-27T19:22:28.580Z,7.70
2019-03-27T19:26:35.626Z,7.60
2019-03-27T19:30:45.144Z,7.60
2019-03-27T19:34:54.580Z,7.60
2019-03-27T19:39:01.165Z,7.50
2019-03-27T19:43:10.268Z,7.50
2019-03-27T19:47:18.989Z,7.40
2019-03-27T19:51:26.674Z,7.30
2019-03-27T19:55:40.075Z,7.10
2019-03-27T19:59:48.434Z,7.00
2019-03-27T20:03:59.843Z,6.90
2019-03-27T20:08:07.892Z,6.80
2019-03-27T20:12:15.981Z,6.90
2019-03-27T20:16:21.946Z,7.00
2019-03-27T20:20:28.729Z,7.10
2019-03-27T20:24:41.101Z,7.10
2019-03-27T20:28:49.203Z,7.20
2019-03-27T20:32:56.352Z,7.20
2019-03-27T20:37:02.114Z,7.20
2019-03-27T20:41:09.249Z,7.20
2019-03-27T20:45:19.391Z,7.20
2019-03-27T20:49:32.396Z,7.20
2019-03-27T20:53:45.959Z,7.20
2019-03-27T20:57:54.155Z,7.20
2019-03-27T21:02:05.753Z,7.20
2019-03-27T21:06:14.339Z,7.20
2019-03-27T21:10:20.822Z,7.20
2019-03-27T21:14:28.418Z,7.20
2019-03-27T21:18:35.658Z,7.10
2019-03-27T21:22:45.770Z,7.20
2019-03-27T21:26:55.546Z,7.20
2019-03-27T21:31:02.297Z,7.30
2019-03-27T21:35:10.739Z,7.30
2019-03-27T21:39:19.156Z,7.30
2019-03-27T21:43:24.612Z,7.30
2019-03-27T21:47:30.147Z,7.30
2019-03-27T21:51:37.649Z,7.30
2019-03-27T21:55:46.277Z,7.30
2019-03-27T21:59:58.305Z,7.30
2019-03-27T22:04:16.843Z,7.30
2019-03-27T22:08:31.007Z,7.20
2019-03-27T22:12:42.619Z,7.20
2019-03-27T22:16:48.060Z,7.20
2019-03-27T22:21:00.997Z,7.20
2019-03-27T22:25:09.518Z,7.10
2019-03-27T22:29:15.114Z,7.10
2019-03-27T22:33:27.393Z,7.10
2019-03-27T22:37:34.073Z,7.10
2019-03-27T22:41:40.942Z,7.10
2019-03-27T22:45:47.758Z,7.10
2019-03-27T22:49:55.966Z,7.00
2019-03-27T22:54:03.060Z,7.00
2019-03-27T22:58:13.084Z,7.00
2019-03-27T23:02:27.722Z,7.00
2019-03-27T23:06:37.855Z,7.00
2019-03-27T23:10:47.605Z,7.00
2019-03-27T23:15:04.287Z,7.00
2019-03-27T23:19:05.780Z,7.00
2019-03-27T23:23:14.324Z,7.00
2019-03-27T23:27:24.686Z,6.90
2019-03-27T23:31:32.928Z,6.90
2019-03-27T23:35:41.528Z,6.90
2019-03-27T23:39:48.825Z,6.90
2019-03-27T23:43:59.579Z,6.90
2019-03-27T23:48:08.426Z,6.90
2019-03-27T23:52:19.987Z,6.90
2019-03-27T23:56:31.125Z,6.80
